| time (UTC) | temp F | wind direction | speed knots | gust knots | rain 1hr in | rain 24hr in | rain mn in | humidity % | barometer mb |
| 20260506202014 | 54 | 46 | 0.9 | 6.1 | 0.11 | 0.82 | 0.78 | 100 | 1004.7 |
| 20260506201014 | 54 | 101 | 0.9 | 3.5 | 0.11 | 0.81 | 0.77 | 100 | 1004.8 |
| 20260506200015 | 54 | 102 | 1.7 | 4.3 | 0.10 | 0.79 | 0.75 | 100 | 1004.9 |
| 20260506195014 | 54 | 26 | 0.9 | 3.5 | 0.09 | 0.76 | 0.72 | 100 | 1005.0 |
| 20260506194514 | 54 | 34 | 1.7 | 3.5 | 0.08 | 0.74 | 0.70 | 100 | 1005.1 |
| 20260506194014 | 54 | 355 | 1.7 | 4.3 | 0.08 | 0.73 | 0.69 | 100 | 1005.1 |
| 20260506193015 | 54 | 270 | 1.7 | 4.3 | 0.09 | 0.72 | 0.68 | 100 | 1004.9 |
| 20260506192514 | 54 | 215 | 1.7 | 3.5 | 0.11 | 0.72 | 0.68 | 100 | 1005.1 |
| 20260506192014 | 54 | 355 | 1.7 | 3.5 | 0.11 | 0.71 | 0.67 | 100 | 1005.1 |
| 20260506191514 | 54 | 28 | 1.7 | 4.3 | 0.11 | 0.70 | 0.66 | 100 | 1005.0 |
| 20260506191015 | 54 | 360 | 1.7 | 4.3 | 0.11 | 0.70 | 0.66 | 100 | 1005.0 |
| 20260506190514 | 54 | 349 | 1.7 | 4.3 | 0.13 | 0.70 | 0.66 | 99 | 1005.1 |
| 20260506190015 | 54 | 305 | 1.7 | 4.3 | 0.13 | 0.69 | 0.65 | 99 | 1005.2 |
| 20260506185514 | 54 | 338 | 1.7 | 4.3 | 0.14 | 0.68 | 0.64 | 99 | 1005.1 |
| 20260506185015 | 54 | 77 | 1.7 | 5.2 | 0.14 | 0.67 | 0.63 | 99 | 1005.1 |
| 20260506184515 | 54 | 24 | 1.7 | 5.2 | 0.17 | 0.66 | 0.62 | 99 | 1005.1 |
| 20260506184014 | 54 | 222 | 1.7 | 3.5 | 0.18 | 0.65 | 0.61 | 99 | 1005.2 |
| 20260506183515 | 54 | 130 | 1.7 | 3.5 | 0.20 | 0.64 | 0.60 | 99 | 1005.1 |
| 20260506183014 | 54 | 78 | 1.7 | 7.0 | 0.21 | 0.62 | 0.58 | 99 | 1005.2 |
| 20260506181515 | 54 | 72 | 1.7 | 7.0 | 0.26 | 0.59 | 0.55 | 99 | 1005.3 |
| 20260506181015 | 54 | 27 | 1.7 | 4.3 | 0.27 | 0.58 | 0.54 | 99 | 1005.3 |
| 20260506180514 | 54 | 355 | 1.7 | 4.3 | 0.28 | 0.57 | 0.53 | 99 | 1005.5 |
| 20260506180015 | 54 | 31 | 1.7 | 7.8 | 0.29 | 0.56 | 0.52 | 99 | 1005.4 |
| 20260506175515 | 54 | 61 | 1.7 | 7.8 | 0.29 | 0.54 | 0.50 | 99 | 1005.4 |
| 20260506175015 | 54 | 12 | 1.7 | 7.0 | 0.28 | 0.52 | 0.48 | 99 | 1005.7 |
| 20260506174515 | 54 | 326 | 1.7 | 7.0 | 0.27 | 0.49 | 0.45 | 99 | 1005.7 |
| 20260506174014 | 54 | 189 | 1.7 | 6.1 | 0.26 | 0.46 | 0.42 | 99 | 1005.6 |
| 20260506173515 | 54 | 30 | 0.9 | 5.2 | 0.24 | 0.43 | 0.39 | 99 | 1005.6 |
| 20260506173015 | 54 | 39 | 0.9 | 4.3 | 0.23 | 0.41 | 0.37 | 99 | 1005.8 |
| 20260506172015 | 54 | 326 | 1.7 | 5.2 | 0.20 | 0.35 | 0.31 | 99 | 1005.9 |
| 20260506171514 | 54 | 84 | 1.7 | 5.2 | 0.19 | 0.33 | 0.29 | 99 | 1006.3 |
| 20260506170514 | 54 | 44 | 1.7 | 4.3 | 0.16 | 0.29 | 0.25 | 99 | 1006.3 |
| 20260506170015 | 54 | 254 | 0.9 | 5.2 | 0.13 | 0.26 | 0.22 | 99 | 1006.4 |
| 20260506165515 | 54 | 44 | 0.9 | 2.6 | 0.13 | 0.25 | 0.21 | 99 | 1006.4 |
| 20260506165014 | 54 | 329 | 0.9 | 4.3 | 0.11 | 0.23 | 0.19 | 99 | 1006.6 |
| 20260506164515 | 54 | 36 | 0.9 | 4.3 | 0.10 | 0.21 | 0.17 | 99 | 1006.7 |
| 20260506164015 | 54 | 31 | 0.9 | 3.5 | 0.09 | 0.20 | 0.16 | 99 | 1006.8 |
| 20260506163514 | 54 | 15 | 0.9 | 4.3 | 0.08 | 0.18 | 0.14 | 99 | 1006.6 |
| 20260506163014 | 54 | 196 | 1.7 | 4.3 | 0.07 | 0.17 | 0.13 | 98 | 1006.6 |
| 20260506162514 | 55 | 55 | 0.9 | 3.5 | 0.07 | 0.16 | 0.12 | 98 | 1006.7 |
| 20260506162014 | 55 | 5 | 0.9 | 3.5 | 0.06 | 0.15 | 0.11 | 98 | 1006.7 |
| 20260506161515 | 55 | 234 | 0.9 | 3.5 | 0.06 | 0.14 | 0.10 | 98 | 1006.7 |
| 20260506160514 | 55 | 56 | 0.9 | 3.5 | 0.06 | 0.13 | 0.09 | 98 | 1006.7 |
| 20260506160015 | 55 | 36 | 0.9 | 3.5 | 0.07 | 0.13 | 0.09 | 98 | 1006.7 |
| 20260506155514 | 55 | 113 | 0.9 | 1.7 | 0.06 | 0.12 | 0.08 | 98 | 1006.7 |
| 20260506155014 | 55 | 162 | 0.9 | 4.3 | 0.07 | 0.12 | 0.08 | 98 | 1006.7 |
| 20260506154515 | 55 | 52 | 0.9 | 4.3 | 0.06 | 0.11 | 0.07 | 97 | 1006.8 |
| 20260506153514 | 55 | 82 | 0.9 | 3.5 | 0.05 | 0.10 | 0.06 | 97 | 1006.9 |
| 20260506153014 | 55 | 317 | 0.9 | 3.5 | 0.05 | 0.10 | 0.06 | 97 | 1006.9 |
| 20260506152515 | 55 | 60 | 0.9 | 2.6 | 0.04 | 0.09 | 0.05 | 97 | 1007.0 |
| 20260506151515 | 55 | 52 | 0.9 | 2.6 | 0.03 | 0.08 | 0.04 | 96 | 1007.1 |
| 20260506151014 | 55 | 55 | 0.9 | 2.6 | 0.03 | 0.08 | 0.04 | 96 | 1007.2 |
| 20260506150514 | 55 | 360 | 1.7 | 3.5 | 0.02 | 0.07 | 0.03 | 96 | 1007.3 |
| 20260506150015 | 55 | 188 | 1.7 | 3.5 | 0.01 | 0.06 | 0.02 | 96 | 1007.4 |
| 20260506145515 | 55 | 333 | 0.9 | 2.6 | 0.01 | 0.06 | 0.02 | 95 | 1007.5 |
| 20260506145014 | 56 | 345 | 0.9 | 1.7 | 0.00 | 0.05 | 0.01 | 94 | 1007.4 |
| 20260506144516 | 56 | 345 | 0.9 | 2.6 | 0.00 | 0.05 | 0.01 | 94 | 1007.4 |
| 20260506143515 | 56 | 298 | 1.7 | 4.3 | 0.00 | 0.05 | 0.01 | 93 | 1007.6 |
| 20260506143015 | 56 | 58 | 0.9 | 4.3 | 0.00 | 0.05 | 0.01 | 92 | 1007.7 |
| 20260506142514 | 56 | 59 | 1.7 | 4.3 | 0.00 | 0.05 | 0.01 | 92 | 1007.6 |
| 20260506142014 | 56 | 329 | 1.7 | 4.3 | 0.00 | 0.05 | 0.01 | 92 | 1007.6 |
| 20260506141014 | 56 | 311 | 1.7 | 5.2 | 0.00 | 0.05 | 0.01 | 92 | 1007.4 |
| 20260506140515 | 56 | 328 | 1.7 | 5.2 | 0.00 | 0.05 | 0.01 | 92 | 1007.3 |
| 20260506140014 | 56 | 86 | 1.7 | 5.2 | 0.00 | 0.05 | 0.01 | 92 | 1007.1 |
| 20260506135515 | 56 | 69 | 1.7 | 4.3 | 0.00 | 0.05 | 0.01 | 92 | 1007.2 |
| 20260506135014 | 56 | 86 | 1.7 | 5.2 | 0.00 | 0.05 | 0.01 | 92 | 1007.2 |
| 20260506134515 | 56 | 81 | 0.9 | 5.2 | 0.00 | 0.05 | 0.01 | 92 | 1007.2 |
| 20260506134014 | 56 | 355 | 0.9 | 2.6 | 0.00 | 0.05 | 0.01 | 92 | 1007.1 |
| 20260506133514 | 56 | 347 | 0.9 | 3.5 | 0.00 | 0.05 | 0.01 | 92 | 1007.0 |
| 20260506132514 | 56 | 96 | 0.9 | 2.6 | 0.00 | 0.05 | 0.01 | 92 | 1007.0 |
| 20260506132014 | 56 | 73 | 0.9 | 4.3 | 0.00 | 0.05 | 0.01 | 92 | 1007.1 |
| 20260506131516 | 55 | 35 | 0.9 | 4.3 | 0.00 | 0.05 | 0.01 | 93 | 1007.0 |
| 20260506131014 | 55 | 303 | 0.9 | 3.5 | 0.00 | 0.05 | 0.01 | 93 | 1007.2 |
| 20260506130514 | 55 | 275 | 0.9 | 4.3 | 0.00 | 0.05 | 0.01 | 93 | 1007.2 |
| 20260506130014 | 55 | 349 | 0.9 | 4.3 | 0.00 | 0.05 | 0.01 | 92 | 1007.3 |
| 20260506125014 | 55 | 37 | 0.9 | 3.5 | 0.00 | 0.05 | 0.01 | 92 | 1007.6 |
| 20260506124514 | 55 | 124 | 0.9 | 2.6 | 0.00 | 0.05 | 0.01 | 93 | 1007.8 |
| 20260506124015 | 55 | 217 | 0.9 | 3.5 | 0.00 | 0.05 | 0.01 | 93 | 1007.7 |
| 20260506123515 | 55 | 360 | 0.9 | 3.5 | 0.01 | 0.05 | 0.01 | 92 | 1007.8 |
| 20260506123015 | 55 | 49 | 0.9 | 2.6 | 0.01 | 0.05 | 0.01 | 92 | 1007.7 |
| 20260506122515 | 55 | 196 | 1.7 | 3.5 | 0.01 | 0.05 | 0.01 | 92 | 1007.8 |
| 20260506122015 | 55 | 102 | 1.7 | 3.5 | 0.01 | 0.05 | 0.01 | 92 | 1007.8 |
| 20260506121515 | 54 | 360 | 1.7 | 4.3 | 0.01 | 0.05 | 0.01 | 92 | 1007.9 |
| 20260506121015 | 54 | 162 | 0.9 | 2.6 | 0.01 | 0.05 | 0.01 | 92 | 1007.8 |
| 20260506120515 | 54 | 46 | 0.9 | 3.5 | 0.01 | 0.05 | 0.01 | 92 | 1007.7 |
| 20260506115515 | 54 | 140 | 0.9 | 2.6 | 0.01 | 0.06 | 0.01 | 92 | 1007.6 |
| 20260506115015 | 54 | 81 | 0.9 | 2.6 | 0.01 | 0.06 | 0.01 | 93 | 1007.6 |
| 20260506114015 | 53 | 130 | 0.9 | 2.6 | 0.00 | 0.05 | 0.00 | 93 | 1007.3 |
| 20260506113015 | 53 | 117 | 0.9 | 4.3 | 0.00 | 0.05 | 0.00 | 93 | 1007.5 |
| 20260506112515 | 53 | 91 | 0.9 | 3.5 | 0.00 | 0.05 | 0.00 | 94 | 1007.6 |
| 20260506112015 | 52 | 61 | 0.0 | 1.7 | 0.00 | 0.05 | 0.00 | 94 | 1007.6 |
| 20260506111515 | 52 | 61 | 0.0 | 1.7 | 0.00 | 0.05 | 0.00 | 94 | 1007.7 |
| 20260506111015 | 52 | 61 | 0.0 | 0.0 | 0.00 | 0.05 | 0.00 | 95 | 1007.7 |
| 20260506110515 | 52 | 61 | 0.0 | 0.0 | 0.00 | 0.05 | 0.00 | 94 | 1007.8 |
| 20260506110016 | 52 | 61 | 0.0 | 0.0 | 0.00 | 0.05 | 0.00 | 95 | 1007.7 |
| 20260506105515 | 52 | 61 | 0.0 | 0.0 | 0.00 | 0.05 | 0.00 | 95 | 1007.7 |
| 20260506105015 | 52 | 61 | 0.0 | 0.0 | 0.00 | 0.05 | 0.00 | 95 | 1007.6 |
| 20260506104515 | 51 | 61 | 0.0 | 0.0 | 0.00 | 0.05 | 0.00 | 95 | 1007.6 |
| 20260506104015 | 51 | 61 | 0.0 | 0.0 | 0.00 | 0.05 | 0.00 | 95 | 1007.4 |
| 20260506103515 | 51 | 61 | 0.0 | 0.0 | 0.00 | 0.05 | 0.00 | 96 | 1007.4 |
| 20260506103015 | 50 | 61 | 0.0 | 0.0 | 0.00 | 0.05 | 0.00 | 96 | 1007.4 |
| 20260506102515 | 50 | 61 | 0.0 | 0.0 | 0.00 | 0.05 | 0.00 | 96 | 1007.4 |
| 20260506102015 | 50 | 61 | 0.0 | 0.0 | 0.00 | 0.05 | 0.00 | 96 | 1007.4 |
| 20260506101515 | 50 | 61 | 0.0 | 0.0 | 0.00 | 0.05 | 0.00 | 96 | 1007.4 |
| 20260506101015 | 50 | 61 | 0.0 | 0.0 | 0.00 | 0.05 | 0.00 | 96 | 1007.4 |
| 20260506100515 | 50 | 61 | 0.0 | 0.0 | 0.00 | 0.05 | 0.00 | 96 | 1007.4 |
| 20260506100015 | 50 | 61 | 0.0 | 0.0 | 0.00 | 0.05 | 0.00 | 96 | 1007.3 |
| 20260506095015 | 50 | 61 | 0.0 | 0.0 | 0.00 | 0.05 | 0.00 | 96 | 1007.4 |
| 20260506094515 | 50 | 61 | 0.0 | 0.0 | 0.00 | 0.05 | 0.00 | 96 | 1007.4 |
| 20260506094015 | 50 | 61 | 0.0 | 0.0 | 0.00 | 0.05 | 0.00 | 96 | 1007.3 |
| 20260506093515 | 50 | 61 | 0.0 | 0.0 | 0.00 | 0.05 | 0.00 | 96 | 1007.3 |
| 20260506092515 | 50 | 61 | 0.0 | 0.0 | 0.00 | 0.05 | 0.00 | 97 | 1007.4 |
| 20260506092015 | 50 | 61 | 0.0 | 0.0 | 0.00 | 0.05 | 0.00 | 97 | 1007.3 |
| 20260506091515 | 50 | 48 | 0.0 | 0.0 | 0.00 | 0.05 | 0.00 | 97 | 1007.4 |
| 20260506091015 | 50 | 48 | 0.0 | 0.0 | 0.00 | 0.05 | 0.00 | 97 | 1007.5 |
| 20260506090515 | 50 | 48 | 0.0 | 0.0 | 0.00 | 0.05 | 0.00 | 97 | 1007.5 |
| 20260506085517 | 50 | 48 | 0.0 | 2.6 | 0.00 | 0.05 | 0.00 | 97 | 1007.6 |
| 20260506085015 | 50 | 46 | 0.0 | 1.7 | 0.00 | 0.05 | 0.00 | 97 | 1007.6 |
| 20260506084515 | 50 | 29 | 0.0 | 1.7 | 0.00 | 0.05 | 0.00 | 98 | 1007.5 |
| 20260506084015 | 50 | 133 | 0.0 | 1.7 | 0.00 | 0.05 | 0.00 | 97 | 1007.4 |
| 20260506083515 | 50 | 133 | 0.0 | 1.7 | 0.00 | 0.05 | 0.00 | 97 | 1007.5 |
| 20260506083015 | 50 | 133 | 0.0 | 0.0 | 0.00 | 0.05 | 0.00 | 97 | 1007.5 |
| 20260506082515 | 50 | 133 | 0.0 | 1.7 | 0.00 | 0.05 | 0.00 | 97 | 1007.5 |
| 20260506081515 | 50 | 133 | 0.0 | 0.9 | 0.00 | 0.05 | 0.00 | 97 | 1007.8 |
| 20260506081015 | 50 | 133 | 0.0 | 0.9 | 0.00 | 0.05 | 0.00 | 97 | 1007.9 |
| 20260506080515 | 50 | 133 | 0.0 | 0.9 | 0.00 | 0.05 | 0.00 | 97 | 1007.9 |
| 20260506073515 | 50 | 133 | 0.0 | 0.0 | 0.00 | 0.05 | 0.00 | 96 | 1008.1 |
| 20260506073016 | 51 | 133 | 0.0 | 0.0 | 0.00 | 0.05 | 0.00 | 96 | 1008.2 |
| 20260506072515 | 51 | 133 | 0.0 | 0.9 | 0.00 | 0.05 | 0.00 | 96 | 1008.3 |
| 20260506072015 | 51 | 133 | 0.0 | 0.9 | 0.00 | 0.05 | 0.00 | 96 | 1008.3 |
| 20260506071516 | 51 | 133 | 0.0 | 0.9 | 0.00 | 0.05 | 0.00 | 96 | 1008.3 |
| 20260506071015 | 51 | 133 | 0.0 | 0.9 | 0.00 | 0.05 | 0.00 | 96 | 1008.3 |
| 20260506070515 | 51 | 133 | 0.0 | 0.0 | 0.00 | 0.05 | 0.00 | 96 | 1008.2 |
| 20260506062515 | 52 | 133 | 0.0 | 0.9 | 0.00 | 0.05 | 0.00 | 94 | 1008.3 |
| 20260506061515 | 52 | 133 | 0.0 | 0.0 | 0.00 | 0.05 | 0.00 | 93 | 1008.1 |
| 20260506061015 | 52 | 133 | 0.0 | 0.9 | 0.00 | 0.05 | 0.00 | 93 | 1008.3 |
| 20260506051015 | 55 | 124 | 0.9 | 2.6 | 0.00 | 0.05 | 0.00 | 90 | 1008.5 |
| 20260506050515 | 55 | 95 | 0.9 | 2.6 | 0.00 | 0.05 | 0.00 | 89 | 1008.5 |
| 20260506045015 | 55 | 95 | 0.9 | 2.6 | 0.00 | 0.05 | 0.00 | 89 | 1008.5 |
| 20260506044515 | 55 | 126 | 0.0 | 0.9 | 0.00 | 0.05 | 0.00 | 90 | 1008.6 |
| 20260506044015 | 55 | 126 | 0.9 | 0.9 | 0.00 | 0.05 | 0.00 | 90 | 1008.8 |
| 20260506043015 | 55 | 126 | 0.0 | 0.9 | 0.00 | 0.05 | 0.00 | 89 | 1008.6 |
| 20260506042515 | 55 | 126 | 0.0 | 0.9 | 0.00 | 0.05 | 0.00 | 89 | 1008.7 |
| 20260506041515 | 55 | 126 | 0.0 | 0.9 | 0.00 | 0.05 | 0.00 | 88 | 1008.5 |
| 20260506041015 | 55 | 126 | 0.0 | 0.9 | 0.00 | 0.05 | 0.00 | 89 | 1008.6 |
| 20260506040515 | 55 | 126 | 0.0 | 0.9 | 0.00 | 0.05 | 0.00 | 90 | 1008.6 |
| 20260506035515 | 55 | 126 | 0.0 | 0.9 | 0.00 | 0.05 | 0.05 | 90 | 1008.7 |
| 20260506034515 | 55 | 126 | 0.0 | 0.9 | 0.00 | 0.05 | 0.05 | 91 | 1008.7 |
| 20260506034015 | 55 | 126 | 0.0 | 1.7 | 0.00 | 0.05 | 0.05 | 90 | 1008.8 |
| 20260506033515 | 55 | 126 | 0.0 | 1.7 | 0.00 | 0.05 | 0.05 | 91 | 1008.6 |
| 20260506033016 | 55 | 126 | 0.0 | 0.9 | 0.00 | 0.05 | 0.05 | 92 | 1008.6 |
| 20260506032015 | 55 | 126 | 0.0 | 0.9 | 0.00 | 0.05 | 0.05 | 94 | 1008.6 |
| 20260506031516 | 55 | 126 | 0.0 | 0.9 | 0.00 | 0.05 | 0.05 | 94 | 1008.6 |
| 20260506031015 | 55 | 126 | 0.0 | 0.9 | 0.00 | 0.05 | 0.05 | 94 | 1008.5 |
| 20260506030515 | 55 | 126 | 0.0 | 0.9 | 0.00 | 0.05 | 0.05 | 94 | 1008.6 |
| 20260506030017 | 55 | 126 | 0.9 | 0.9 | 0.00 | 0.05 | 0.05 | 94 | 1008.9 |
| 20260506025515 | 55 | 126 | 0.0 | 0.9 | 0.00 | 0.05 | 0.05 | 94 | 1008.8 |
| 20260506025015 | 55 | 126 | 0.0 | 0.9 | 0.00 | 0.05 | 0.05 | 94 | 1008.7 |
| 20260506024515 | 55 | 126 | 0.0 | 0.9 | 0.00 | 0.05 | 0.05 | 94 | 1008.7 |
| 20260506024015 | 55 | 126 | 0.9 | 0.9 | 0.00 | 0.05 | 0.05 | 94 | 1009.0 |
| 20260506023515 | 55 | 126 | 0.0 | 0.9 | 0.00 | 0.05 | 0.05 | 93 | 1008.9 |
| 20260506023015 | 55 | 126 | 0.0 | 0.9 | 0.00 | 0.05 | 0.05 | 93 | 1008.9 |
| 20260506022015 | 55 | 126 | 0.0 | 0.9 | 0.00 | 0.05 | 0.05 | 93 | 1009.0 |
| 20260506021516 | 55 | 126 | 0.0 | 0.0 | 0.00 | 0.05 | 0.05 | 93 | 1009.0 |
| 20260506021015 | 55 | 126 | 0.0 | 0.0 | 0.00 | 0.05 | 0.05 | 93 | 1009.0 |
| 20260506020515 | 55 | 126 | 0.0 | 0.9 | 0.00 | 0.05 | 0.05 | 93 | 1009.0 |
| 20260506020015 | 55 | 126 | 0.0 | 0.9 | 0.01 | 0.05 | 0.05 | 93 | 1009.0 |
| 20260506015515 | 55 | 126 | 0.9 | 1.7 | 0.01 | 0.05 | 0.05 | 94 | 1009.1 |
| 20260506015015 | 55 | 126 | 0.9 | 1.7 | 0.01 | 0.05 | 0.05 | 93 | 1009.1 |
| 20260506014515 | 55 | 126 | 0.0 | 0.9 | 0.01 | 0.05 | 0.05 | 93 | 1009.1 |
| 20260506014015 | 55 | 126 | 0.0 | 0.9 | 0.01 | 0.05 | 0.05 | 93 | 1008.9 |
| 20260506013515 | 55 | 126 | 0.0 | 0.9 | 0.01 | 0.05 | 0.05 | 93 | 1008.9 |
| 20260506013015 | 55 | 126 | 0.0 | 0.9 | 0.01 | 0.05 | 0.05 | 94 | 1009.0 |
| 20260506012515 | 55 | 126 | 0.9 | 1.7 | 0.01 | 0.05 | 0.05 | 94 | 1009.0 |
| 20260506012015 | 55 | 126 | 0.9 | 1.7 | 0.01 | 0.05 | 0.05 | 93 | 1008.9 |
| 20260506011515 | 55 | 126 | 0.9 | 0.9 | 0.01 | 0.05 | 0.05 | 93 | 1008.6 |
| 20260506011015 | 55 | 126 | 0.0 | 0.9 | 0.01 | 0.05 | 0.05 | 93 | 1008.3 |
| 20260506010515 | 55 | 126 | 0.0 | 0.9 | 0.00 | 0.04 | 0.04 | 93 | 1008.4 |
| 20260506005015 | 56 | 126 | 0.0 | 0.9 | 0.00 | 0.04 | 0.04 | 90 | 1008.4 |
| 20260506004515 | 56 | 126 | 0.0 | 0.9 | 0.00 | 0.04 | 0.04 | 91 | 1008.4 |
| 20260506004014 | 56 | 126 | 0.0 | 0.9 | 0.00 | 0.04 | 0.04 | 91 | 1008.1 |
| 20260506003514 | 56 | 126 | 0.0 | 0.9 | 0.00 | 0.04 | 0.04 | 91 | 1008.0 |
| 20260506003014 | 56 | 126 | 0.0 | 0.0 | 0.00 | 0.04 | 0.04 | 91 | 1008.0 |
| 20260506002514 | 56 | 126 | 0.0 | 0.9 | 0.00 | 0.04 | 0.04 | 91 | 1007.9 |
| 20260506002014 | 56 | 126 | 0.0 | 0.9 | 0.00 | 0.04 | 0.04 | 91 | 1007.8 |
| 20260506001514 | 56 | 126 | 0.9 | 1.7 | 0.00 | 0.04 | 0.04 | 91 | 1007.7 |
| 20260506001014 | 56 | 126 | 0.9 | 1.7 | 0.00 | 0.04 | 0.04 | 91 | 1007.8 |
| 20260506000514 | 56 | 126 | 0.0 | 1.7 | 0.00 | 0.04 | 0.04 | 90 | 1007.9 |
| 20260506000014 | 56 | 126 | 0.0 | 1.7 | 0.00 | 0.04 | 0.04 | 89 | 1008.0 |
| 20260505235514 | 56 | 126 | 0.0 | 1.7 | 0.00 | 0.04 | 0.04 | 90 | 1008.0 |
| 20260505234014 | 57 | 126 | 0.0 | 1.7 | 0.00 | 0.04 | 0.04 | 87 | 1007.8 |
| 20260505233514 | 57 | 126 | 0.0 | 1.7 | 0.00 | 0.04 | 0.04 | 88 | 1007.7 |
| 20260505233014 | 57 | 126 | 0.0 | 2.6 | 0.00 | 0.04 | 0.04 | 87 | 1007.6 |
| 20260505232514 | 57 | 126 | 0.9 | 2.6 | 0.01 | 0.04 | 0.04 | 87 | 1007.6 |
| 20260505231014 | 57 | 88 | 0.9 | 5.2 | 0.03 | 0.04 | 0.04 | 88 | 1007.7 |
| 20260505230514 | 57 | 103 | 0.9 | 3.5 | 0.03 | 0.04 | 0.04 | 89 | 1007.6 |
| 20260505230014 | 57 | 188 | 0.9 | 3.5 | 0.03 | 0.04 | 0.04 | 89 | 1007.5 |
| 20260505225514 | 57 | 59 | 1.7 | 3.5 | 0.03 | 0.04 | 0.04 | 89 | 1007.4 |
| 20260505225015 | 57 | 318 | 1.7 | 5.2 | 0.03 | 0.04 | 0.04 | 89 | 1007.5 |
| 20260505224014 | 58 | 46 | 1.7 | 8.7 | 0.03 | 0.04 | 0.04 | 89 | 1007.5 |
| 20260505223514 | 58 | 82 | 1.7 | 8.7 | 0.03 | 0.04 | 0.04 | 88 | 1007.3 |
| 20260505223014 | 58 | 319 | 1.7 | 5.2 | 0.03 | 0.04 | 0.04 | 88 | 1007.4 |
| 20260505222014 | 61 | 77 | 1.7 | 5.2 | 0.01 | 0.02 | 0.02 | 80 | 1007.0 |
| 20260505221514 | 64 | 103 | 1.7 | 6.1 | 0.01 | 0.02 | 0.02 | 70 | 1007.0 |
| 20260505221014 | 67 | 133 | 1.7 | 6.1 | 0.00 | 0.01 | 0.01 | 59 | 1007.0 |
| 20260505220014 | 70 | 338 | 2.6 | 5.2 | 0.00 | 0.01 | 0.01 | 44 | 1006.1 |
| 20260505215514 | 70 | 324 | 2.6 | 7.0 | 0.00 | 0.01 | 0.01 | 44 | 1005.7 |
| 20260505215014 | 70 | 55 | 2.6 | 7.8 | 0.00 | 0.01 | 0.01 | 43 | 1005.5 |
| 20260505214514 | 70 | 323 | 2.6 | 8.7 | 0.00 | 0.01 | 0.01 | 44 | 1005.6 |
| 20260505213014 | 71 | 321 | 2.6 | 9.6 | 0.00 | 0.01 | 0.01 | 44 | 1005.7 |
| 20260505212014 | 71 | 308 | 2.6 | 8.7 | 0.00 | 0.01 | 0.01 | 44 | 1005.4 |
| 20260505211514 | 71 | 339 | 2.6 | 5.2 | 0.00 | 0.01 | 0.01 | 43 | 1005.4 |
| 20260505211014 | 71 | 68 | 2.6 | 8.7 | 0.00 | 0.01 | 0.01 | 44 | 1005.3 |
| 20260505210514 | 72 | 336 | 2.6 | 8.7 | 0.00 | 0.01 | 0.01 | 44 | 1005.0 |
| 20260505210014 | 72 | 47 | 3.5 | 7.0 | 0.00 | 0.01 | 0.01 | 44 | 1004.9 |
| 20260505205514 | 72 | 297 | 3.5 | 8.7 | 0.00 | 0.01 | 0.01 | 43 | 1005.0 |
| 20260505205014 | 72 | 55 | 3.5 | 9.6 | 0.00 | 0.01 | 0.01 | 43 | 1004.6 |
| 20260505204514 | 72 | 265 | 3.5 | 9.6 | 0.00 | 0.01 | 0.01 | 43 | 1004.9 |
| 20260505204014 | 73 | 277 | 2.6 | 7.8 | 0.00 | 0.01 | 0.01 | 43 | 1005.2 |
| 20260505203514 | 72 | 38 | 2.6 | 7.8 | 0.00 | 0.01 | 0.01 | 44 | 1005.1 |
| 20260505203014 | 72 | 313 | 2.6 | 12.2 | 0.00 | 0.01 | 0.01 | 45 | 1005.1 |